Time;durP1;ratioP1;P1;durP2;ratioP2;P2;SDS_P1;SDS_P2;PMS_P1;PMS_P2;Temp;Humidity;BMP_temperature;BMP_pressure;BME280_temperature;BME280_humidity;BME280_pressure;Samples;Min_cycle;Max_cycle;Signal;HPM_P1;HPM_P2
2023/12/01 00:01:26;;;;;;;;;51.75;31.25;;;;;6.36;71.56;99524.75;5088578;27;67179;-59
2023/12/01 00:03:51;;;;;;;;;44.75;35.75;;;;;6.31;71.44;99522.28;5092543;27;69361;-58
2023/12/01 00:06:16;;;;;;;;;54.50;36.00;;;;;6.30;71.74;99527.50;5098047;27;45371;-59
2023/12/01 00:08:42;;;;;;;;;48.00;30.75;;;;;6.27;71.77;99526.72;5099747;27;45377;-58
2023/12/01 00:11:07;;;;;;;;;55.50;35.75;;;;;6.25;71.91;99518.13;5097190;27;45357;-59
2023/12/01 00:13:32;;;;;;;;;48.00;33.75;;;;;6.31;71.87;99522.28;5095321;27;72960;-59
2023/12/01 00:15:58;;;;;;;;;29.00;26.25;;;;;6.31;71.56;99529.22;5083508;27;45413;-59
2023/12/01 00:18:23;;;;;;;;;38.75;21.00;;;;;6.26;71.60;99522.41;5097428;27;45487;-58
2023/12/01 00:20:49;;;;;;;;;47.75;32.25;;;;;6.24;71.67;99534.59;5084720;27;47702;-58
2023/12/01 00:23:14;;;;;;;;;46.25;35.50;;;;;6.22;71.56;99530.34;5099995;27;45279;-58
2023/12/01 00:25:39;;;;;;;;;53.00;36.50;;;;;6.21;71.68;99528.63;5099832;27;45318;-59
2023/12/01 00:28:05;;;;;;;;;44.00;33.00;;;;;6.19;71.68;99531.25;5101290;27;45435;-59
2023/12/01 00:30:31;;;;;;;;;40.50;30.25;;;;;6.17;71.75;99527.88;5101397;27;45378;-59
2023/12/01 00:32:56;;;;;;;;;41.50;33.75;;;;;6.14;71.57;99532.28;5101585;27;45287;-58
2023/12/01 00:35:21;;;;;;;;;47.25;34.25;;;;;6.08;71.56;99531.56;5101416;27;45355;-58
2023/12/01 00:37:47;;;;;;;;;41.75;27.00;;;;;6.05;71.71;99533.41;5098604;27;70829;-59
2023/12/01 00:40:12;;;;;;;;;34.00;25.50;;;;;6.01;71.66;99527.44;5081424;27;54173;-58
2023/12/01 00:42:38;;;;;;;;;49.00;32.75;;;;;5.99;71.76;99526.63;5102354;27;45352;-59
2023/12/01 00:45:03;;;;;;;;;43.25;29.00;;;;;6.00;71.89;99530.97;5100496;27;45331;-58
2023/12/01 00:47:29;;;;;;;;;42.00;31.00;;;;;6.01;72.07;99531.78;5098135;27;45616;-58
2023/12/01 00:49:54;;;;;;;;;40.00;26.25;;;;;6.00;71.97;99530.09;5092651;27;62554;-58
2023/12/01 00:52:19;;;;;;;;;36.33;25.67;;;;;5.98;72.04;99537.06;5095333;27;73297;-58
2023/12/01 00:54:44;;;;;;;;;37.25;24.00;;;;;5.97;71.82;99538.81;5099115;27;45723;-58
2023/12/01 00:57:10;;;;;;;;;45.50;26.25;;;;;5.95;71.88;99529.31;5083189;27;68091;-57
2023/12/01 00:59:35;;;;;;;;;40.00;29.75;;;;;5.93;71.91;99546.69;5100426;27;66188;-58
2023/12/01 01:02:00;;;;;;;;;47.50;32.25;;;;;5.88;71.75;99545.09;5099912;27;72016;-58
2023/12/01 01:04:26;;;;;;;;;40.33;29.33;;;;;5.87;71.83;99542.53;5098401;27;67242;-58
2023/12/01 01:06:51;;;;;;;;;40.50;28.25;;;;;5.84;72.01;99537.41;5086357;27;71680;-58
2023/12/01 01:09:16;;;;;;;;;48.67;32.33;;;;;5.83;72.07;99536.56;5076876;27;77397;-58
2023/12/01 01:11:42;;;;;;;;;32.75;21.00;;;;;5.84;72.22;99542.59;5096027;27;73346;-58
2023/12/01 01:14:08;;;;;;;;;56.00;38.25;;;;;5.82;72.02;99532.25;5097280;27;45430;-58
2023/12/01 01:16:33;;;;;;;;;39.75;34.75;;;;;5.80;72.21;99543.59;5069162;27;45410;-58
2023/12/01 01:18:58;;;;;;;;;48.67;31.00;;;;;5.79;72.54;99541.88;5083315;27;75857;-58
2023/12/01 01:21:23;;;;;;;;;44.67;33.33;;;;;5.78;72.58;99532.38;5076048;27;72066;-58
2023/12/01 01:23:49;;;;;;;;;46.00;34.00;;;;;5.79;72.37;99540.16;5080260;27;45266;-58
2023/12/01 01:26:14;;;;;;;;;54.75;37.50;;;;;5.77;72.56;99536.75;5098606;27;70184;-58
2023/12/01 01:28:40;;;;;;;;;49.75;33.25;;;;;5.78;72.81;99535.00;5099216;27;45331;-58
2023/12/01 01:31:06;;;;;;;;;47.25;32.50;;;;;5.78;72.57;99537.59;5066130;27;45186;-57
2023/12/01 01:33:31;;;;;;;;;51.00;33.75;;;;;5.76;72.39;99548.00;5084049;27;45331;-58
2023/12/01 01:35:56;;;;;;;;;50.00;33.00;;;;;5.70;72.26;99550.75;5088379;27;73461;-58
2023/12/01 01:38:22;;;;;;;;;41.75;28.50;;;;;5.67;72.25;99559.47;5099220;27;46387;-58
2023/12/01 01:40:47;;;;;;;;;47.67;33.00;;;;;5.67;72.25;99559.47;5093000;27;72668;-59
2023/12/01 01:43:22;;;;;;;;;43.33;35.00;;;;;5.64;72.35;99550.91;5092988;27;67298;-59
2023/12/01 01:46:02;;;;;;;;;43.50;32.00;;;;;5.60;72.25;99557.09;5073552;27;45605;-59
2023/12/01 01:48:29;;;;;;;;;58.00;37.00;;;;;5.55;72.25;99549.41;5075896;27;46043;-58
2023/12/01 01:50:54;;;;;;;;;42.50;27.50;;;;;5.55;72.43;99548.56;5089745;27;45776;-59
2023/12/01 01:53:20;;;;;;;;;43.75;31.50;;;;;5.56;72.83;99548.53;5070349;27;45374;-59
2023/12/01 01:55:45;;;;;;;;;46.75;28.50;;;;;5.58;72.78;99549.34;5067061;27;71983;-59
2023/12/01 01:58:12;;;;;;;;;38.50;23.50;;;;;5.59;72.72;99545.84;5099115;27;65700;-59
2023/12/01 02:00:38;;;;;;;;;38.25;27.00;;;;;5.61;72.75;99551.88;5098862;27;45473;-58
2023/12/01 02:03:03;;;;;;;;;46.00;31.00;;;;;5.64;72.59;99558.69;5093006;27;45450;-59
2023/12/01 02:05:29;;;;;;;;;36.00;28.75;;;;;5.64;72.48;99562.16;5089802;27;45513;-60
2023/12/01 02:07:54;;;;;;;;;53.00;32.50;;;;;5.65;72.50;99565.63;5063582;27;46553;-59
2023/12/01 02:10:20;;;;;;;;;42.25;27.50;;;;;5.65;72.55;99566.44;5075441;27;73473;-60
2023/12/01 02:12:46;;;;;;;;;37.00;25.75;;;;;5.65;72.50;99563.03;5099965;27;45350;-58
2023/12/01 02:15:11;;;;;;;;;39.25;28.25;;;;;5.63;72.56;99570.84;5085929;27;45279;-58
2023/12/01 02:17:38;;;;;;;;;38.75;28.00;;;;;5.62;72.37;99571.72;5077931;27;47134;-58
2023/12/01 02:20:05;;;;;;;;;45.00;29.75;;;;;5.60;72.33;99572.66;5091519;27;45850;-58
2023/12/01 02:22:31;;;;;;;;;43.75;33.25;;;;;5.57;72.51;99575.31;5079406;27;45371;-58
2023/12/01 02:24:56;;;;;;;;;39.75;28.50;;;;;5.56;72.69;99568.41;5095536;27;47274;-58
2023/12/01 02:27:21;;;;;;;;;54.25;36.25;;;;;5.59;72.53;99573.53;5092871;27;70842;-58
2023/12/01 02:29:47;;;;;;;;;38.33;27.00;;;;;5.60;72.58;99565.72;5090233;27;71352;-58
2023/12/01 02:32:12;;;;;;;;;49.25;34.50;;;;;5.60;72.36;99572.66;5080851;27;55823;-58
2023/12/01 02:34:37;;;;;;;;;53.75;33.00;;;;;5.60;72.20;99575.25;5087158;27;63726;-58
2023/12/01 02:37:03;;;;;;;;;39.25;32.50;;;;;5.55;72.27;99570.16;5090875;27;45984;-58
2023/12/01 02:39:28;;;;;;;;;51.75;36.50;;;;;5.55;72.15;99564.97;5095788;27;45773;-58
2023/12/01 02:41:53;;;;;;;;;44.00;28.33;;;;;5.55;72.34;99571.91;5095681;27;67458;-58
2023/12/01 02:44:19;;;;;;;;;47.75;31.50;;;;;5.55;72.08;99574.50;5093076;27;45426;-58
2023/12/01 02:46:44;;;;;;;;;41.00;33.00;;;;;5.53;72.18;99574.56;5095243;27;74568;-58
2023/12/01 02:49:09;;;;;;;;;48.00;33.00;;;;;5.52;71.94;99572.84;5067727;27;73553;-59
2023/12/01 02:51:35;;;;;;;;;40.00;31.33;;;;;5.49;71.74;99568.59;5069667;27;67930;-58
2023/12/01 02:54:00;;;;;;;;;40.50;28.50;;;;;5.45;71.72;99577.34;5083228;27;59794;-58
2023/12/01 02:56:26;;;;;;;;;44.75;35.00;;;;;5.39;71.48;99577.47;5097146;27;46068;-58
2023/12/01 02:58:51;;;;;;;;;47.67;35.67;;;;;5.36;71.76;99576.69;5080207;27;70729;-58
2023/12/01 03:01:17;;;;;;;;;56.00;37.67;;;;;5.30;71.85;99577.72;5075560;28;70169;-59
2023/12/01 03:03:43;;;;;;;;;42.50;28.75;;;;;5.25;71.78;99576.97;5096034;27;45461;-60
2023/12/01 03:06:08;;;;;;;;;42.25;35.50;;;;;5.21;71.95;99573.59;5076124;27;46694;-60
2023/12/01 03:08:34;;;;;;;;;49.75;32.00;;;;;5.21;71.98;99577.94;5073801;27;45430;-58
2023/12/01 03:10:59;;;;;;;;;39.67;26.67;;;;;5.21;72.19;99583.13;5094754;27;68120;-58
2023/12/01 03:13:24;;;;;;;;;42.75;31.75;;;;;5.18;72.14;99575.41;5096021;27;45506;-58
2023/12/01 03:15:50;;;;;;;;;47.25;27.25;;;;;5.15;72.33;99578.91;5093596;27;46570;-58
2023/12/01 03:18:15;;;;;;;;;40.00;32.00;;;;;5.12;72.37;99585.03;5079919;27;45457;-58
2023/12/01 03:20:41;;;;;;;;;50.00;31.75;;;;;5.11;72.35;99579.88;5092966;27;46179;-58
2023/12/01 03:23:06;;;;;;;;;46.25;33.25;;;;;5.11;72.36;99583.31;5098706;27;45410;-58
2023/12/01 03:25:33;;;;;;;;;51.67;35.67;;;;;5.13;72.49;99586.75;5085428;27;74621;-58
2023/12/01 03:27:58;;;;;;;;;41.75;32.25;;;;;5.12;72.68;99582.44;5079623;27;45905;-58
2023/12/01 03:30:23;;;;;;;;;39.75;31.50;;;;;5.10;72.71;99591.16;5081447;27;69415;-58
2023/12/01 03:32:50;;;;;;;;;45.75;29.25;;;;;5.08;72.52;99585.13;5077876;27;48828;-58
2023/12/01 03:35:21;;;;;;;;;29.75;24.00;;;;;5.08;72.65;99586.00;5100755;27;45450;-58
2023/12/01 03:37:47;;;;;;;;;41.75;32.00;;;;;5.07;72.80;99584.28;5102959;27;45432;-58
2023/12/01 03:40:13;;;;;;;;;45.00;32.75;;;;;5.06;72.78;99585.16;5084003;27;45549;-58
2023/12/01 03:42:43;;;;;;;;;44.00;32.25;;;;;5.06;72.83;99594.69;5068956;27;45355;-58
2023/12/01 03:45:12;;;;;;;;;48.25;28.75;;;;;5.06;72.62;99590.34;5088276;27;46225;-58
2023/12/01 03:47:39;;;;;;;;;39.75;32.00;;;;;5.05;72.70;99582.63;5083934;27;45339;-58
2023/12/01 03:50:05;;;;;;;;;49.50;30.50;;;;;5.04;72.77;99586.09;5099558;27;45406;-58
2023/12/01 03:52:30;;;;;;;;;52.75;36.25;;;;;4.99;72.74;99593.97;5093885;27;45583;-58
2023/12/01 03:54:58;;;;;;;;;51.75;38.75;;;;;4.94;72.89;99595.84;5082887;27;45912;-58
2023/12/01 03:57:27;;;;;;;;;44.75;35.00;;;;;4.91;73.12;99606.25;5094488;27;45283;-59
2023/12/01 03:59:53;;;;;;;;;51.25;36.25;;;;;4.86;73.11;99614.13;5085435;27;45496;-58
2023/12/01 04:02:18;;;;;;;;;52.75;35.75;;;;;4.83;73.19;99611.59;5101480;27;45259;-58
2023/12/01 04:04:43;;;;;;;;;46.67;32.00;;;;;4.82;73.51;99614.25;5086061;27;74238;-59
2023/12/01 04:07:09;;;;;;;;;39.00;26.75;;;;;4.82;73.37;99615.09;5096243;27;69991;-59
2023/12/01 04:09:34;;;;;;;;;46.00;35.00;;;;;4.83;73.41;99614.19;5102324;27;69450;-59
2023/12/01 04:12:00;;;;;;;;;42.00;33.25;;;;;4.85;73.12;99619.34;5100552;27;56139;-58
2023/12/01 04:14:25;;;;;;;;;32.50;31.00;;;;;4.81;73.11;99609.94;5100943;27;47151;-58
2023/12/01 04:16:50;;;;;;;;;42.67;32.67;;;;;4.83;73.29;99616.78;5066465;27;72644;-58
2023/12/01 04:19:15;;;;;;;;;35.67;26.67;;;;;4.84;73.34;99609.88;5092764;27;70268;-58
2023/12/01 04:21:41;;;;;;;;;46.75;27.75;;;;;4.85;73.13;99616.75;5087197;27;67644;-58
2023/12/01 04:24:06;;;;;;;;;46.50;32.50;;;;;4.87;73.17;99618.44;5090952;27;45240;-58
2023/12/01 04:26:32;;;;;;;;;43.33;37.00;;;;;4.91;73.24;99622.66;5094413;27;72798;-59
2023/12/01 04:28:57;;;;;;;;;46.50;31.50;;;;;4.92;73.02;99626.09;5072117;27;45248;-58
2023/12/01 04:31:23;;;;;;;;;45.75;32.00;;;;;4.92;73.02;99626.09;5081944;27;66324;-58
2023/12/01 04:33:48;;;;;;;;;56.00;34.33;;;;;4.93;72.96;99625.22;5091245;27;75723;-58
2023/12/01 04:36:14;;;;;;;;;38.00;33.75;;;;;4.93;72.92;99630.41;5096589;27;45274;-58
2023/12/01 04:38:39;;;;;;;;;32.25;31.50;;;;;4.92;72.83;99626.97;5101202;27;45201;-58
2023/12/01 04:41:09;;;;;;;;;55.25;37.25;;;;;4.90;72.52;99631.31;5100190;27;45446;-58
2023/12/01 04:43:39;;;;;;;;;49.25;37.25;;;;;4.87;72.54;99633.13;5086034;27;47208;-58
2023/12/01 04:46:05;;;;;;;;;38.50;28.75;;;;;4.83;72.60;99627.16;5079596;27;45572;-58
2023/12/01 04:48:30;;;;;;;;;54.75;39.75;;;;;4.82;72.71;99627.22;5082256;27;45286;-58
2023/12/01 04:50:56;;;;;;;;;50.00;35.33;;;;;4.81;72.54;99625.50;5067348;28;73189;-58
2023/12/01 04:53:21;;;;;;;;;52.00;37.25;;;;;4.84;72.74;99630.63;5075682;27;45615;-59
2023/12/01 04:55:47;;;;;;;;;54.33;34.67;;;;;4.84;72.59;99630.63;5093530;27;75253;-58
2023/12/01 04:58:12;;;;;;;;;51.75;35.00;;;;;4.84;72.52;99630.63;5083883;27;45233;-58
2023/12/01 05:00:37;;;;;;;;;49.75;33.75;;;;;4.82;72.35;99637.56;5080658;27;75307;-58
2023/12/01 05:03:07;;;;;;;;;51.25;34.75;;;;;4.79;72.27;99619.50;5092092;27;48260;-58
2023/12/01 05:05:37;;;;;;;;;47.50;35.00;;;;;4.80;72.38;99635.00;5100688;27;45815;-58
2023/12/01 05:08:04;;;;;;;;;54.75;35.25;;;;;4.77;72.24;99623.84;5097261;27;45295;-61
2023/12/01 05:10:31;;;;;;;;;53.75;41.75;;;;;4.76;72.21;99622.97;5092754;27;46576;-58
2023/12/01 05:12:59;;;;;;;;;61.25;38.50;;;;;4.74;72.19;99629.94;5073986;27;45452;-59
2023/12/01 05:15:26;;;;;;;;;59.00;34.25;;;;;4.67;72.19;99631.81;5098240;27;45716;-58
2023/12/01 05:18:06;;;;;;;;;47.00;31.00;;;;;4.66;72.37;99644.81;5078426;28;45240;-59
2023/12/01 05:20:32;;;;;;;;;56.75;35.50;;;;;4.67;72.50;99646.50;5089140;27;45271;-58
2023/12/01 05:22:58;;;;;;;;;50.25;31.00;;;;;4.70;72.39;99642.13;5099646;27;45872;-58
2023/12/01 05:25:27;;;;;;;;;53.25;39.75;;;;;4.74;72.44;99651.53;5089849;27;45279;-58
2023/12/01 05:27:56;;;;;;;;;56.75;38.50;;;;;4.74;72.33;99643.75;5094850;27;45432;-58
2023/12/01 05:30:26;;;;;;;;;50.00;38.00;;;;;4.76;72.49;99638.53;5100481;27;45416;-59
2023/12/01 05:32:53;;;;;;;;;55.25;36.75;;;;;4.75;72.28;99642.03;5090950;27;47064;-58
2023/12/01 05:35:19;;;;;;;;;54.50;35.50;;;;;4.73;72.40;99634.28;5092924;27;45426;-59
2023/12/01 05:37:52;;;;;;;;;48.25;37.25;;;;;4.74;72.10;99641.16;5096507;27;45466;-58
2023/12/01 05:40:22;;;;;;;;;58.50;35.75;;;;;4.70;72.16;99652.47;5100412;27;45488;-57
2023/12/01 05:42:49;;;;;;;;;46.25;37.75;;;;;4.70;72.10;99654.22;5081746;27;45438;-60
2023/12/01 05:45:15;;;;;;;;;39.00;29.00;;;;;4.67;72.29;99655.13;5099318;27;45780;-58
2023/12/01 05:47:43;;;;;;;;;46.25;33.00;;;;;4.69;72.57;99648.19;5098885;27;45323;-58
2023/12/01 05:50:12;;;;;;;;;55.00;34.00;;;;;4.71;72.43;99648.13;5092886;27;45339;-59
2023/12/01 05:52:37;;;;;;;;;47.25;37.00;;;;;4.70;72.80;99639.53;5098782;27;46332;-58
2023/12/01 05:55:10;;;;;;;;;43.75;32.75;;;;;4.74;72.52;99642.91;5098047;27;45323;-58
2023/12/01 05:57:35;;;;;;;;;55.75;40.25;;;;;4.73;72.61;99647.25;5099046;27;45402;-58
2023/12/01 06:00:01;;;;;;;;;46.75;32.75;;;;;4.73;72.45;99643.81;5087660;27;49296;-58
2023/12/01 06:02:26;;;;;;;;;55.50;37.25;;;;;4.71;72.27;99645.56;5092394;27;46046;-58
2023/12/01 06:04:54;;;;;;;;;40.00;24.50;;;;;4.71;72.24;99649.00;5080156;27;45308;-59
2023/12/01 06:07:19;;;;;;;;;55.50;36.50;;;;;4.69;72.19;99645.59;5089402;27;45444;-58
2023/12/01 06:09:45;;;;;;;;;52.25;39.75;;;;;4.70;71.99;99657.66;5078968;27;73164;-58
2023/12/01 06:12:10;;;;;;;;;60.25;40.50;;;;;4.67;72.07;99646.50;5097256;27;45243;-58
2023/12/01 06:14:36;;;;;;;;;59.25;39.25;;;;;4.65;71.92;99654.31;5088109;27;45294;-58
2023/12/01 06:17:01;;;;;;;;;51.00;37.33;;;;;4.64;72.27;99655.22;5074976;27;68199;-58
2023/12/01 06:19:26;;;;;;;;;54.75;40.75;;;;;4.65;72.31;99651.72;5081207;27;61874;-58
2023/12/01 06:21:52;;;;;;;;;57.75;39.25;;;;;4.69;72.25;99660.28;5095440;27;75572;-58
2023/12/01 06:24:17;;;;;;;;;50.00;33.50;;;;;4.71;72.12;99666.28;5087507;27;52998;-58
2023/12/01 06:26:42;;;;;;;;;57.00;41.25;;;;;4.74;72.24;99671.41;5081697;27;69326;-58
2023/12/01 06:29:08;;;;;;;;;49.67;33.00;;;;;4.74;72.05;99668.81;5078234;27;68492;-58
2023/12/01 06:31:33;;;;;;;;;61.00;40.75;;;;;4.71;71.81;99677.53;5091486;27;46079;-58
2023/12/01 06:33:59;;;;;;;;;55.25;39.25;;;;;4.67;72.09;99675.84;5072721;27;45548;-58
2023/12/01 06:36:25;;;;;;;;;54.00;33.50;;;;;4.68;71.96;99684.50;5089666;27;45358;-58
2023/12/01 06:38:51;;;;;;;;;56.25;37.25;;;;;4.67;72.08;99675.84;5094659;27;45295;-58
2023/12/01 06:41:16;;;;;;;;;57.75;37.50;;;;;4.68;72.08;99671.53;5082100;27;46306;-58
2023/12/01 06:43:42;;;;;;;;;60.00;38.50;;;;;4.68;72.18;99672.38;5077748;27;45359;-58
2023/12/01 06:46:07;;;;;;;;;48.75;37.00;;;;;4.71;71.93;99676.66;5097767;27;45360;-58
2023/12/01 06:48:32;;;;;;;;;45.25;39.25;;;;;4.72;71.87;99671.44;5091123;27;51144;-58
2023/12/01 06:50:58;;;;;;;;;66.25;44.00;;;;;4.74;72.49;99674.00;5091599;27;49458;-58
2023/12/01 06:53:23;;;;;;;;;49.75;30.75;;;;;4.75;72.48;99683.50;5079452;27;65691;-58
2023/12/01 06:55:49;;;;;;;;;60.50;40.75;;;;;4.75;72.30;99686.94;5089114;27;45341;-58
2023/12/01 06:58:14;;;;;;;;;58.67;37.33;;;;;4.74;72.20;99681.78;5096966;27;72138;-58
2023/12/01 07:00:40;;;;;;;;;53.75;36.25;;;;;4.73;72.02;99685.28;5088145;27;45448;-58
2023/12/01 07:03:09;;;;;;;;;47.50;36.00;;;;;4.72;72.14;99688.72;5097865;27;45196;-56
2023/12/01 07:05:37;;;;;;;;;49.75;35.00;;;;;4.74;72.18;99679.19;5099368;27;45336;-56
2023/12/01 07:08:06;;;;;;;;;49.00;36.75;;;;;4.76;72.11;99674.81;5098893;27;45275;-58
2023/12/01 07:10:34;;;;;;;;;55.50;37.25;;;;;4.78;72.40;99682.56;5096789;27;46856;-59
2023/12/01 07:13:00;;;;;;;;;59.75;39.00;;;;;4.79;72.47;99677.34;5094049;27;45837;-61
2023/12/01 07:15:25;;;;;;;;;58.50;39.25;;;;;4.83;72.24;99688.50;5072818;27;45327;-60
2023/12/01 07:17:56;;;;;;;;;53.50;36.25;;;;;4.84;72.04;99696.25;5078635;27;59329;-59
2023/12/01 07:20:22;;;;;;;;;56.00;37.00;;;;;4.84;71.96;99692.81;5092009;27;45713;-60
2023/12/01 07:22:48;;;;;;;;;62.50;41.00;;;;;4.86;71.94;99701.41;5096169;27;45426;-58
2023/12/01 07:25:21;;;;;;;;;60.75;40.00;;;;;4.84;71.86;99705.78;5080549;27;45356;-57
2023/12/01 07:27:57;;;;;;;;;49.75;31.25;;;;;4.84;71.74;99698.00;5098809;27;45283;-61
2023/12/01 07:30:23;;;;;;;;;50.25;38.00;;;;;4.83;71.82;99707.50;5095953;27;46384;-58
2023/12/01 07:32:49;;;;;;;;;54.25;35.25;;;;;4.80;71.79;99702.41;5090411;27;50157;-59
2023/12/01 07:35:15;;;;;;;;;53.00;37.25;;;;;4.78;71.45;99709.38;5080500;27;45296;-58
2023/12/01 07:37:44;;;;;;;;;56.00;37.25;;;;;4.77;71.78;99696.44;5082868;27;45362;-59
2023/12/01 07:40:10;;;;;;;;;57.75;39.75;;;;;4.74;71.76;99708.53;5098801;27;45352;-58
2023/12/01 07:42:37;;;;;;;;;59.25;42.75;;;;;4.72;71.75;99693.91;5096517;27;45704;-57
2023/12/01 07:45:02;;;;;;;;;57.00;38.75;;;;;4.70;71.86;99699.13;5099182;27;45352;-58
2023/12/01 07:47:28;;;;;;;;;46.25;38.75;;;;;4.71;71.78;99689.59;5097944;27;45267;-58
2023/12/01 07:49:53;;;;;;;;;56.33;43.00;;;;;4.72;71.94;99697.34;5097453;27;74521;-59
2023/12/01 07:52:19;;;;;;;;;50.25;30.25;;;;;4.74;71.74;99698.16;5098866;27;45308;-59
2023/12/01 07:54:45;;;;;;;;;53.00;37.75;;;;;4.75;71.51;99693.88;5096492;27;45549;-58
2023/12/01 07:57:10;;;;;;;;;44.00;33.50;;;;;4.72;71.51;99694.75;5082181;27;45350;-59
2023/12/01 07:59:36;;;;;;;;;57.25;38.75;;;;;4.71;71.47;99702.56;5099417;27;50737;-59
2023/12/01 08:02:01;;;;;;;;;49.75;38.25;;;;;4.70;71.53;99708.66;5095593;27;45379;-59
2023/12/01 08:04:27;;;;;;;;;50.25;38.00;;;;;4.69;71.69;99712.97;5081653;27;45445;-59
2023/12/01 08:06:52;;;;;;;;;47.00;31.00;;;;;4.69;71.63;99712.09;5094340;27;56350;-59
2023/12/01 08:09:17;;;;;;;;;60.50;37.75;;;;;4.68;71.55;99713.84;5098880;27;45904;-60
2023/12/01 08:11:43;;;;;;;;;52.75;34.75;;;;;4.68;71.34;99716.44;5097382;27;62035;-59
2023/12/01 08:14:10;;;;;;;;;48.75;34.00;;;;;4.67;71.57;99721.66;5084520;27;45308;-57
2023/12/01 08:16:35;;;;;;;;;50.00;30.25;;;;;4.66;71.46;99718.22;5094352;27;45430;-58
2023/12/01 08:19:01;;;;;;;;;59.25;38.75;;;;;4.66;71.31;99725.16;5082168;27;51978;-58
2023/12/01 08:21:26;;;;;;;;;49.75;37.50;;;;;4.66;71.31;99720.81;5094972;27;45221;-61
2023/12/01 08:23:51;;;;;;;;;57.75;37.75;;;;;4.68;71.31;99728.56;5102424;27;54812;-59
2023/12/01 08:26:17;;;;;;;;;58.75;42.00;;;;;4.69;71.38;99730.25;5100072;27;69942;-59
2023/12/01 08:28:42;;;;;;;;;57.00;40.67;;;;;4.68;71.21;99734.59;5082695;27;74577;-54
2023/12/01 08:31:07;;;;;;;;;55.67;39.00;;;;;4.67;71.12;99734.63;5082674;27;72730;-58
2023/12/01 08:33:35;;;;;;;;;56.25;36.00;;;;;4.68;71.35;99734.59;5097714;27;46430;-58
2023/12/01 08:36:01;;;;;;;;;46.25;34.25;;;;;4.70;71.19;99731.97;5102451;27;45407;-56
2023/12/01 08:38:26;;;;;;;;;54.75;40.50;;;;;4.69;71.23;99720.75;5078374;27;46131;-56
2023/12/01 08:40:51;;;;;;;;;43.67;37.00;;;;;4.70;70.94;99729.38;5101683;27;73005;-57
2023/12/01 08:43:17;;;;;;;;;59.33;41.67;;;;;4.69;71.08;99732.84;5085526;27;68909;-56
2023/12/01 08:45:42;;;;;;;;;57.75;40.25;;;;;4.68;71.08;99724.22;5100796;27;45489;-57
2023/12/01 08:48:07;;;;;;;;;53.67;40.67;;;;;4.71;71.01;99731.06;5086747;27;75504;-57
2023/12/01 08:50:33;;;;;;;;;56.75;38.50;;;;;4.77;70.99;99727.53;5080483;27;73023;-59
2023/12/01 08:52:58;;;;;;;;;54.00;36.00;;;;;4.85;71.04;99730.81;5102562;27;45433;-58
2023/12/01 08:55:23;;;;;;;;;58.00;41.25;;;;;4.90;70.84;99731.56;5097652;27;45645;-56
2023/12/01 08:57:49;;;;;;;;;62.00;40.67;;;;;4.97;70.50;99733.16;5095135;27;75496;-56
2023/12/01 09:00:20;;;;;;;;;49.00;32.50;;;;;4.95;70.20;99733.19;5098051;27;45236;-55
2023/12/01 09:02:46;;;;;;;;;53.50;36.00;;;;;4.94;69.86;99735.84;5085673;27;45316;-55
2023/12/01 09:05:11;;;;;;;;;49.25;36.75;;;;;4.91;69.79;99735.88;5098445;27;45508;-54
2023/12/01 09:07:36;;;;;;;;;59.75;43.00;;;;;4.90;70.06;99727.22;5094278;27;74281;-54
2023/12/01 09:10:02;;;;;;;;;50.50;34.00;;;;;4.91;70.06;99733.28;5099348;27;45327;-55
2023/12/01 09:12:27;;;;;;;;;50.50;34.50;;;;;4.93;70.03;99734.97;5098946;27;45791;-56
2023/12/01 09:14:53;;;;;;;;;52.75;36.50;;;;;5.01;70.09;99732.22;5089313;27;52495;-55
2023/12/01 09:17:18;;;;;;;;;44.50;26.00;;;;;5.06;69.67;99725.19;5100602;27;46047;-54
2023/12/01 09:19:44;;;;;;;;;41.33;32.67;;;;;5.07;69.45;99733.84;5094474;27;68139;-57
2023/12/01 09:22:09;;;;;;;;;48.33;33.00;;;;;5.05;69.47;99736.47;5067321;27;69718;-56
2023/12/01 09:24:34;;;;;;;;;48.50;34.25;;;;;5.04;69.40;99744.25;5088709;27;45224;-57
2023/12/01 09:26:59;;;;;;;;;57.33;40.00;;;;;5.01;69.19;99746.91;5092310;27;67216;-52
2023/12/01 09:29:25;;;;;;;;;59.00;37.67;;;;;4.98;69.28;99749.59;5088885;27;70085;-58
2023/12/01 09:31:50;;;;;;;;;54.33;40.00;;;;;4.98;69.29;99747.00;5080777;27;65618;-53
2023/12/01 09:34:16;;;;;;;;;41.00;30.00;;;;;4.98;69.44;99752.19;5063628;27;45629;-55
2023/12/01 09:36:42;;;;;;;;;44.75;33.25;;;;;4.92;69.28;99754.00;5101884;27;45318;-56
2023/12/01 09:39:07;;;;;;;;;57.00;36.00;;;;;4.89;69.05;99755.81;5092886;27;46754;-52
2023/12/01 09:41:35;;;;;;;;;58.50;39.00;;;;;4.87;69.19;99767.91;5083281;27;45244;-53
2023/12/01 09:44:02;;;;;;;;;60.50;42.00;;;;;4.85;68.86;99777.47;5101022;27;45478;-55
2023/12/01 09:46:35;;;;;;;;;57.50;41.00;;;;;4.80;68.87;99785.34;5080935;28;47216;-52
2023/12/01 09:49:07;;;;;;;;;39.75;32.25;;;;;4.75;68.88;99785.41;5080956;27;45486;-55
2023/12/01 09:51:34;;;;;;;;;52.00;39.25;;;;;4.68;68.88;99782.97;5087912;27;45167;-57
2023/12/01 09:54:02;;;;;;;;;60.50;41.00;;;;;4.64;69.16;99791.66;5071312;28;45410;-55
2023/12/01 09:56:27;;;;;;;;;52.25;39.00;;;;;4.63;69.32;99790.81;5097371;27;46216;-55
2023/12/01 09:58:54;;;;;;;;;50.50;32.75;;;;;4.62;68.97;99801.22;5077451;27;48660;-51
2023/12/01 10:01:21;;;;;;;;;61.50;42.00;;;;;4.55;69.02;99797.88;5088210;27;45172;-55
2023/12/01 10:03:46;;;;;;;;;54.75;32.75;;;;;4.56;69.11;99799.59;5091587;27;45169;-57
2023/12/01 10:06:11;;;;;;;;;60.00;41.75;;;;;4.55;69.24;99798.75;5099079;27;46457;-57
2023/12/01 10:08:37;;;;;;;;;56.67;38.00;;;;;4.55;69.25;99808.22;5080150;27;72076;-58
2023/12/01 10:11:23;;;;;;;;;57.00;41.00;;;;;4.55;69.37;99822.06;5088219;27;69351;-58
2023/12/01 10:13:49;;;;;;;;;81.25;57.50;;;;;4.58;69.45;99818.56;5082024;27;45457;-58
2023/12/01 10:16:16;;;;;;;;;57.75;40.25;;;;;4.63;69.28;99819.31;5098778;27;45962;-61
2023/12/01 10:19:01;;;;;;;;;41.00;31.50;;;;;4.61;69.26;99825.44;5097183;27;45342;-52
2023/12/01 10:21:46;;;;;;;;;58.25;40.50;;;;;4.59;69.00;99819.44;5081969;27;45340;-54
2023/12/01 10:24:16;;;;;;;;;46.75;25.75;;;;;4.60;69.05;99824.56;5087038;27;45526;-58
2023/12/01 10:26:42;;;;;;;;;53.50;37.50;;;;;4.60;69.20;99821.97;5092459;27;46162;-54
2023/12/01 10:29:44;;;;;;;;;58.00;37.75;;;;;4.59;69.16;99822.88;5100202;27;45460;-55
2023/12/01 10:32:11;;;;;;;;;55.00;36.50;;;;;4.62;69.35;99829.72;5101266;27;45440;-52
2023/12/01 10:34:47;;;;;;;;;45.00;28.25;;;;;4.68;69.41;99825.28;5073967;27;45383;-55
2023/12/01 12:17:04;;;;;;;;;44.75;30.75;;;;;4.60;67.44;99783.09;4998535;23;45660;-61
2023/12/01 12:19:43;;;;;;;;;49.75;33.75;;;;;4.59;67.63;99783.16;4974229;28;47568;-61
2023/12/01 12:22:09;;;;;;;;;46.00;32.50;;;;;4.62;67.62;99788.25;4959339;28;45300;-63
2023/12/01 12:24:34;;;;;;;;;34.50;29.25;;;;;4.60;67.49;99785.69;4961910;28;69232;-62
2023/12/01 12:26:59;;;;;;;;;54.75;37.50;;;;;4.61;67.53;99796.94;4962582;28;45502;-65
2023/12/01 12:29:25;;;;;;;;;43.75;34.00;;;;;4.59;67.47;99796.94;4969954;28;73259;-61
2023/12/01 12:31:51;;;;;;;;;40.75;31.50;;;;;4.59;67.32;99796.94;4973922;28;45507;-61
2023/12/01 12:34:17;;;;;;;;;44.50;27.25;;;;;4.62;67.65;99796.91;4961623;28;45247;-67
2023/12/01 12:36:43;;;;;;;;;38.25;26.50;;;;;4.63;67.50;99792.56;4963203;28;45210;-62
2023/12/01 12:39:16;;;;;;;;;52.25;31.25;;;;;4.64;66.97;99792.53;4954596;28;45291;-59
2023/12/01 12:41:42;;;;;;;;;47.00;30.50;;;;;4.64;67.16;99789.97;4960026;28;45980;-60
2023/12/01 12:44:09;;;;;;;;;50.75;34.00;;;;;4.64;67.15;99789.97;4968197;28;45279;-61
2023/12/01 12:46:35;;;;;;;;;45.50;31.50;;;;;4.66;67.01;99790.78;4964787;28;45493;-61
2023/12/01 12:49:07;;;;;;;;;44.00;29.25;;;;;4.64;66.86;99789.97;4961508;28;45300;-60
2023/12/01 12:51:33;;;;;;;;;16.75;8.25;;;;;4.64;67.05;99783.91;4958196;28;45249;-60
2023/12/01 12:53:58;;;;;;;;;42.75;25.25;;;;;4.62;66.83;99791.72;4962377;28;45239;-59
2023/12/01 12:56:24;;;;;;;;;47.75;35.00;;;;;4.59;66.86;99794.38;4945181;28;45520;-59
2023/12/01 12:58:56;;;;;;;;;35.75;28.25;;;;;4.56;66.62;99790.06;4961155;28;47565;-63
2023/12/01 13:01:23;;;;;;;;;43.25;32.75;;;;;4.56;66.70;99791.81;4961870;28;45271;-63